createdAt,value
2022-07-27T00:01:51.105Z,19.39
2022-07-27T00:04:19.454Z,19.38
2022-07-27T00:06:53.135Z,19.37
2022-07-27T00:09:23.528Z,19.36
2022-07-27T00:11:55.173Z,19.33
2022-07-27T00:14:24.974Z,19.31
2022-07-27T00:16:54.659Z,19.31
2022-07-27T00:19:24.310Z,19.29
2022-07-27T00:21:54.357Z,19.25
2022-07-27T00:24:24.985Z,19.22
2022-07-27T00:26:54.714Z,19.22
2022-07-27T00:29:24.502Z,19.22
2022-07-27T00:31:53.641Z,19.20
2022-07-27T00:34:22.610Z,19.15
2022-07-27T00:36:51.621Z,19.13
2022-07-27T00:39:21.674Z,19.12
2022-07-27T00:41:50.800Z,19.11
2022-07-27T00:44:28.355Z,19.10
2022-07-27T00:46:58.386Z,19.06
2022-07-27T00:49:28.668Z,19.02
2022-07-27T00:51:57.604Z,18.99
2022-07-27T00:54:27.887Z,18.97
2022-07-27T00:56:59.542Z,18.98
2022-07-27T00:59:29.153Z,18.97
2022-07-27T01:01:59.845Z,18.95
2022-07-27T01:04:28.759Z,18.97
2022-07-27T01:07:00.132Z,18.97
2022-07-27T01:09:48.013Z,18.96
2022-07-27T01:12:19.231Z,18.92
2022-07-27T01:14:49.672Z,18.92
2022-07-27T01:17:20.070Z,18.94
2022-07-27T01:19:49.947Z,18.93
2022-07-27T01:22:21.349Z,18.88
2022-07-27T01:24:50.874Z,18.82
2022-07-27T01:27:20.256Z,18.79
2022-07-27T01:29:49.847Z,18.77
2022-07-27T01:32:19.299Z,18.75
2022-07-27T01:34:48.247Z,18.72
2022-07-27T01:37:19.531Z,18.66
2022-07-27T01:39:49.508Z,18.62
2022-07-27T01:42:19.308Z,18.58
2022-07-27T01:44:49.260Z,18.57
2022-07-27T01:47:20.076Z,18.56
2022-07-27T01:49:49.838Z,18.58
2022-07-27T01:52:20.234Z,18.59
2022-07-27T01:54:50.412Z,18.59
2022-07-27T01:57:20.253Z,18.61
2022-07-27T01:59:49.984Z,18.59
2022-07-27T02:02:19.449Z,18.60
2022-07-27T02:04:49.258Z,18.56
2022-07-27T02:07:18.617Z,18.57
2022-07-27T02:09:47.749Z,18.60
2022-07-27T02:12:35.471Z,18.62
2022-07-27T02:15:15.028Z,18.61
2022-07-27T02:17:45.362Z,18.58
2022-07-27T02:20:18.479Z,18.57
2022-07-27T02:22:48.051Z,18.57
2022-07-27T02:25:19.132Z,18.55
2022-07-27T02:27:49.129Z,18.55
2022-07-27T02:30:19.277Z,18.52
2022-07-27T02:32:49.595Z,18.50
2022-07-27T02:35:20.443Z,18.47
2022-07-27T02:37:49.569Z,18.47
2022-07-27T02:40:20.374Z,18.44
2022-07-27T02:42:49.547Z,18.44
2022-07-27T02:45:19.115Z,18.44
2022-07-27T02:47:49.323Z,18.42
2022-07-27T02:50:19.644Z,18.39
2022-07-27T02:52:48.649Z,18.39
2022-07-27T02:55:18.856Z,18.35
2022-07-27T02:57:48.625Z,18.33
2022-07-27T03:00:19.995Z,18.36
2022-07-27T03:02:51.041Z,18.43
2022-07-27T03:05:20.084Z,18.41
2022-07-27T03:07:49.830Z,18.38
2022-07-27T03:10:19.453Z,18.41
2022-07-27T03:12:48.577Z,18.41
2022-07-27T03:15:17.799Z,18.44
2022-07-27T03:17:48.446Z,18.46
2022-07-27T03:20:17.646Z,18.45
2022-07-27T03:22:47.947Z,18.44
2022-07-27T03:25:17.902Z,18.44
2022-07-27T03:27:47.170Z,18.43
2022-07-27T03:30:17.664Z,18.47
2022-07-27T03:32:48.305Z,18.51
2022-07-27T03:35:19.784Z,18.58
2022-07-27T03:37:50.377Z,18.63
2022-07-27T03:40:21.786Z,18.69
2022-07-27T03:42:50.552Z,18.74
2022-07-27T03:45:23.304Z,18.75
2022-07-27T03:47:52.230Z,18.76
2022-07-27T03:50:23.894Z,18.82
2022-07-27T03:52:54.313Z,18.84
2022-07-27T03:55:23.570Z,18.85
2022-07-27T03:57:53.643Z,18.90
2022-07-27T04:00:23.092Z,18.94
2022-07-27T04:02:53.279Z,18.98
2022-07-27T04:05:23.097Z,19.07
2022-07-27T04:07:54.795Z,19.12
2022-07-27T04:10:31.612Z,19.21
2022-07-27T04:12:57.878Z,19.30
2022-07-27T04:15:28.942Z,19.39
2022-07-27T04:17:59.078Z,19.48
2022-07-27T04:20:29.353Z,19.57
2022-07-27T04:22:58.840Z,19.67
2022-07-27T04:25:30.541Z,19.77
2022-07-27T04:28:00.217Z,19.89
2022-07-27T04:30:30.154Z,20.02
2022-07-27T04:32:59.793Z,20.14
2022-07-27T04:35:29.181Z,20.26
2022-07-27T04:37:59.811Z,20.35
2022-07-27T04:40:33.320Z,20.46
2022-07-27T04:43:04.015Z,20.59
2022-07-27T04:45:34.526Z,20.71
2022-07-27T04:48:10.452Z,20.84
2022-07-27T04:50:42.058Z,20.97
2022-07-27T04:53:11.882Z,21.08
2022-07-27T04:55:44.764Z,21.18
2022-07-27T04:58:16.777Z,21.28
2022-07-27T05:00:47.062Z,21.38
2022-07-27T05:03:18.547Z,21.51
2022-07-27T05:05:49.774Z,21.66
2022-07-27T05:08:19.491Z,21.86
2022-07-27T05:10:50.929Z,22.07
2022-07-27T05:13:20.125Z,22.34
2022-07-27T05:15:55.582Z,22.59
2022-07-27T05:18:24.371Z,22.85
2022-07-27T05:20:55.748Z,23.05
2022-07-27T05:23:25.669Z,23.32
2022-07-27T05:25:55.583Z,23.61
2022-07-27T05:28:24.822Z,23.93
2022-07-27T05:30:54.320Z,24.26
2022-07-27T05:33:25.573Z,24.58
2022-07-27T05:35:56.805Z,24.83
2022-07-27T05:38:26.360Z,25.08
2022-07-27T05:40:56.300Z,25.29
2022-07-27T05:43:25.610Z,25.53
2022-07-27T05:45:55.141Z,25.81
2022-07-27T05:48:26.881Z,26.06
2022-07-27T05:50:55.904Z,26.31
2022-07-27T05:53:26.267Z,26.61
2022-07-27T05:55:58.170Z,26.92
2022-07-27T05:58:30.798Z,27.19
2022-07-27T06:00:59.975Z,27.43
2022-07-27T06:03:30.121Z,27.67
2022-07-27T06:06:18.512Z,27.90
2022-07-27T06:08:50.301Z,28.12
2022-07-27T06:11:20.625Z,28.31
2022-07-27T06:13:52.699Z,28.45
2022-07-27T06:16:25.235Z,28.55
2022-07-27T06:18:54.958Z,28.66
2022-07-27T06:21:26.083Z,28.78
2022-07-27T06:23:56.156Z,28.81
2022-07-27T06:26:25.998Z,28.91
2022-07-27T06:28:58.550Z,29.02
2022-07-27T06:31:29.543Z,29.10
2022-07-27T06:34:00.337Z,29.31
2022-07-27T06:36:30.492Z,29.41
2022-07-27T06:39:01.000Z,29.56
2022-07-27T06:41:33.062Z,29.79
2022-07-27T06:44:03.483Z,29.98
2022-07-27T06:46:32.378Z,30.07
2022-07-27T06:49:01.718Z,30.22
2022-07-27T06:51:31.620Z,30.33
2022-07-27T06:54:05.174Z,30.47
2022-07-27T06:56:33.991Z,30.53
2022-07-27T06:59:03.731Z,30.56
2022-07-27T07:01:34.122Z,30.53
2022-07-27T07:04:04.086Z,30.61
2022-07-27T07:06:34.510Z,30.72
2022-07-27T07:09:03.949Z,30.88
2022-07-27T07:11:33.183Z,31.03
2022-07-27T07:14:04.679Z,31.19
2022-07-27T07:16:33.876Z,31.29
2022-07-27T07:19:05.553Z,31.35
2022-07-27T07:21:35.086Z,31.48
2022-07-27T07:24:04.657Z,31.61
2022-07-27T07:26:36.090Z,31.82
2022-07-27T07:29:09.823Z,32.02
2022-07-27T07:31:40.056Z,32.06
2022-07-27T07:34:11.352Z,32.06
2022-07-27T07:36:41.258Z,32.22
2022-07-27T07:39:11.995Z,32.26
2022-07-27T07:41:41.677Z,31.92
2022-07-27T07:44:12.872Z,31.57
2022-07-27T07:46:47.254Z,31.48
2022-07-27T07:49:16.316Z,31.48
2022-07-27T07:51:49.405Z,31.48
2022-07-27T07:54:19.516Z,31.57
2022-07-27T07:56:49.407Z,31.70
2022-07-27T07:59:19.105Z,31.79
2022-07-27T08:01:48.755Z,31.71
2022-07-27T08:04:18.353Z,31.48
2022-07-27T08:06:50.590Z,31.34
2022-07-27T08:09:21.689Z,31.37
2022-07-27T08:11:52.637Z,31.45
2022-07-27T08:14:23.912Z,31.57
2022-07-27T08:16:53.687Z,31.72
2022-07-27T08:19:25.262Z,31.96
2022-07-27T08:21:55.714Z,32.16
2022-07-27T08:24:25.765Z,32.18
2022-07-27T08:26:55.453Z,32.09
2022-07-27T08:29:24.518Z,31.96
2022-07-27T08:31:56.381Z,31.76
2022-07-27T08:34:27.303Z,31.65
2022-07-27T08:36:56.313Z,31.76
2022-07-27T08:40:20.122Z,31.93
2022-07-27T08:42:00.114Z,31.89
2022-07-27T08:44:34.549Z,31.82
2022-07-27T08:47:05.182Z,32.02
2022-07-27T08:49:43.665Z,32.11
2022-07-27T08:52:10.850Z,32.08
2022-07-27T08:54:43.117Z,32.14
2022-07-27T08:57:14.471Z,32.16
2022-07-27T08:59:45.369Z,32.34
2022-07-27T09:02:16.127Z,32.28
2022-07-27T09:04:49.316Z,32.23
2022-07-27T09:07:31.868Z,32.13
2022-07-27T09:10:04.300Z,32.08
2022-07-27T09:12:35.906Z,31.88
2022-07-27T09:15:10.947Z,31.61
2022-07-27T09:17:48.436Z,31.27
2022-07-27T09:20:20.998Z,31.08
2022-07-27T09:22:56.901Z,30.96
2022-07-27T09:26:02.712Z,30.88
2022-07-27T09:28:01.167Z,30.79
2022-07-27T09:30:31.344Z,30.72
2022-07-27T09:33:04.327Z,30.70
2022-07-27T09:35:35.247Z,30.72
2022-07-27T09:38:23.482Z,30.81
2022-07-27T09:41:04.159Z,30.87
2022-07-27T09:44:29.777Z,30.88
2022-07-27T09:46:34.313Z,30.84
2022-07-27T09:49:04.111Z,30.80
2022-07-27T09:51:59.594Z,30.81
2022-07-27T09:54:11.962Z,30.90
2022-07-27T09:56:44.996Z,30.94
2022-07-27T09:59:18.908Z,30.92
2022-07-27T10:01:54.457Z,30.83
2022-07-27T10:04:22.830Z,30.73
2022-07-27T10:07:06.128Z,30.65
2022-07-27T10:09:28.831Z,30.55
2022-07-27T10:12:00.087Z,30.40
2022-07-27T10:14:29.561Z,30.28
2022-07-27T10:17:00.157Z,30.27
2022-07-27T10:19:47.288Z,30.31
2022-07-27T10:22:18.091Z,30.30
2022-07-27T10:24:53.736Z,30.39
2022-07-27T10:27:30.453Z,30.43
2022-07-27T10:30:00.002Z,30.47
2022-07-27T10:32:30.825Z,30.54
2022-07-27T10:35:01.575Z,30.63
2022-07-27T10:37:34.425Z,30.68
2022-07-27T10:40:25.772Z,30.66
2022-07-27T10:43:08.857Z,30.55
2022-07-27T10:45:50.238Z,30.52
2022-07-27T10:48:44.176Z,30.49
2022-07-27T10:51:11.378Z,30.39
2022-07-27T10:54:10.414Z,30.24
2022-07-27T10:56:15.377Z,30.18
2022-07-27T10:58:45.531Z,30.20
2022-07-27T11:01:15.869Z,30.24
2022-07-27T11:03:48.584Z,30.32
2022-07-27T11:07:15.054Z,30.31
2022-07-27T11:09:27.288Z,30.29
2022-07-27T11:11:26.737Z,30.32
2022-07-27T11:14:01.006Z,30.35
2022-07-27T11:16:31.112Z,30.41
2022-07-27T11:19:06.587Z,30.43
2022-07-27T11:21:38.134Z,30.43
2022-07-27T11:24:15.145Z,30.44
2022-07-27T11:26:50.413Z,30.43
2022-07-27T11:29:22.167Z,30.27
2022-07-27T11:31:57.321Z,30.05
2022-07-27T11:34:36.655Z,29.91
2022-07-27T11:37:11.741Z,29.81
2022-07-27T11:42:18.039Z,29.60
2022-07-27T11:44:47.919Z,29.60
2022-07-27T11:47:20.464Z,29.54
2022-07-27T11:49:50.629Z,29.52
2022-07-27T11:52:20.642Z,29.45
2022-07-27T11:54:53.072Z,29.18
2022-07-27T11:57:23.290Z,29.01
2022-07-27T11:59:53.134Z,29.01
2022-07-27T12:02:23.119Z,28.73
2022-07-27T12:04:57.796Z,28.54
2022-07-27T12:07:33.890Z,28.43
2022-07-27T12:10:06.729Z,28.36
2022-07-27T12:12:37.447Z,28.26
2022-07-27T12:17:57.685Z,28.00
2022-07-27T12:20:34.668Z,27.84
2022-07-27T12:23:08.476Z,27.76
2022-07-27T12:25:39.871Z,27.74
2022-07-27T12:28:14.802Z,27.68
2022-07-27T12:30:48.688Z,27.64
2022-07-27T12:33:37.019Z,27.61
2022-07-27T12:36:09.065Z,27.58
2022-07-27T12:38:53.410Z,27.61
2022-07-27T12:41:30.731Z,27.61
2022-07-27T12:44:18.949Z,27.59
2022-07-27T12:47:02.491Z,27.58
2022-07-27T12:49:40.798Z,27.55
2022-07-27T12:52:11.846Z,27.54
2022-07-27T12:54:45.263Z,27.56
2022-07-27T12:57:24.406Z,27.56
2022-07-27T12:59:48.223Z,27.54
2022-07-27T13:02:18.838Z,27.54
2022-07-27T13:04:48.908Z,27.51
2022-07-27T13:07:20.434Z,27.51
2022-07-27T13:10:03.598Z,27.50
2022-07-27T13:12:22.729Z,27.48
2022-07-27T13:14:54.067Z,27.49
2022-07-27T13:17:24.929Z,27.49
2022-07-27T13:19:54.959Z,27.48
2022-07-27T13:22:24.546Z,27.48
2022-07-27T13:24:54.682Z,27.47
2022-07-27T13:27:25.509Z,27.42
2022-07-27T13:29:55.800Z,27.38
2022-07-27T13:32:26.220Z,27.34
2022-07-27T13:34:56.867Z,27.28
2022-07-27T13:37:27.395Z,27.25
2022-07-27T13:39:57.513Z,27.24
2022-07-27T13:42:27.729Z,27.22
2022-07-27T13:45:08.035Z,27.22
2022-07-27T13:47:30.104Z,27.23
2022-07-27T13:50:01.769Z,27.15
2022-07-27T13:52:31.956Z,27.13
2022-07-27T13:55:02.208Z,27.09
2022-07-27T13:57:32.618Z,27.05
2022-07-27T14:00:03.623Z,26.97
2022-07-27T14:02:34.942Z,26.92
2022-07-27T14:05:05.951Z,26.82
2022-07-27T14:07:35.783Z,26.74
2022-07-27T14:10:25.689Z,26.61
2022-07-27T14:12:58.976Z,26.48
2022-07-27T14:15:29.295Z,26.38
2022-07-27T14:18:00.561Z,26.26
2022-07-27T14:20:31.446Z,26.12
2022-07-27T14:23:00.683Z,26.03
2022-07-27T14:25:30.604Z,25.95
2022-07-27T14:28:00.697Z,25.91
2022-07-27T14:30:30.644Z,25.84
2022-07-27T14:33:02.981Z,25.84
2022-07-27T14:35:39.942Z,25.85
2022-07-27T14:38:05.657Z,25.87
2022-07-27T14:40:36.093Z,25.95
2022-07-27T14:43:05.463Z,26.02
2022-07-27T14:45:44.412Z,26.04
2022-07-27T14:48:08.254Z,26.00
2022-07-27T14:50:39.435Z,25.96
2022-07-27T14:53:08.639Z,25.94
2022-07-27T14:55:42.499Z,25.93
2022-07-27T14:58:11.513Z,25.95
2022-07-27T15:00:41.030Z,25.90
2022-07-27T15:03:14.753Z,25.88
2022-07-27T15:05:49.351Z,25.80
2022-07-27T15:08:13.145Z,25.74
2022-07-27T15:10:44.543Z,25.66
2022-07-27T15:13:15.809Z,25.59
2022-07-27T15:15:47.830Z,25.57
2022-07-27T15:18:21.057Z,25.56
2022-07-27T15:20:51.388Z,25.56
2022-07-27T15:23:22.338Z,25.49
2022-07-27T15:25:52.247Z,25.44
2022-07-27T15:28:23.384Z,25.40
2022-07-27T15:30:54.329Z,25.36
2022-07-27T15:33:26.985Z,25.33
2022-07-27T15:35:58.658Z,25.27
2022-07-27T15:38:28.115Z,25.24
2022-07-27T15:40:58.418Z,25.20
2022-07-27T15:43:29.270Z,25.18
2022-07-27T15:45:59.751Z,25.14
2022-07-27T15:48:30.335Z,25.11
2022-07-27T15:51:00.793Z,25.08
2022-07-27T15:53:32.439Z,25.03
2022-07-27T15:56:02.546Z,25.02
2022-07-27T15:58:31.641Z,25.02
2022-07-27T16:01:00.892Z,25.03
2022-07-27T16:03:31.374Z,25.03
2022-07-27T16:06:01.502Z,25.03
2022-07-27T16:08:32.339Z,25.05
2022-07-27T16:11:01.965Z,25.05
2022-07-27T16:13:32.262Z,25.06
2022-07-27T16:16:22.429Z,25.05
2022-07-27T16:18:57.344Z,25.03
2022-07-27T16:21:27.686Z,24.96
2022-07-27T16:23:57.303Z,24.93
2022-07-27T16:26:27.179Z,24.89
2022-07-27T16:28:58.401Z,24.87
2022-07-27T16:31:28.840Z,24.85
2022-07-27T16:34:01.020Z,24.75
2022-07-27T16:36:38.209Z,24.69
2022-07-27T16:39:04.073Z,24.64
2022-07-27T16:41:33.354Z,24.60
2022-07-27T16:44:02.997Z,24.56
2022-07-27T16:46:33.659Z,24.57
2022-07-27T16:49:04.031Z,24.59
2022-07-27T16:51:33.671Z,24.60
2022-07-27T16:54:02.759Z,24.58
2022-07-27T16:56:33.579Z,24.60
2022-07-27T16:59:03.784Z,24.58
2022-07-27T17:01:34.081Z,24.55
2022-07-27T17:04:04.725Z,24.54
2022-07-27T17:06:34.989Z,24.53
2022-07-27T17:09:04.917Z,24.51
2022-07-27T17:11:37.506Z,24.51
2022-07-27T17:14:07.460Z,24.50
2022-07-27T17:16:37.647Z,24.45
2022-07-27T17:19:07.639Z,24.32
2022-07-27T17:21:39.850Z,24.26
2022-07-27T17:24:10.292Z,24.22
2022-07-27T17:26:40.202Z,24.21
2022-07-27T17:29:10.658Z,24.19
2022-07-27T17:31:42.176Z,24.15
2022-07-27T17:34:12.319Z,24.11
2022-07-27T17:36:42.379Z,24.02
2022-07-27T17:39:12.012Z,23.98
2022-07-27T17:41:41.582Z,23.88
2022-07-27T17:44:12.419Z,23.83
2022-07-27T17:46:43.096Z,23.76
2022-07-27T17:49:12.782Z,23.73
2022-07-27T17:51:43.012Z,23.72
2022-07-27T17:54:12.385Z,23.66
2022-07-27T17:56:44.026Z,23.55
2022-07-27T17:59:36.009Z,23.53
2022-07-27T18:01:46.911Z,23.49
2022-07-27T18:04:16.457Z,23.47
2022-07-27T18:06:45.957Z,23.45
2022-07-27T18:09:17.205Z,23.40
2022-07-27T18:11:49.270Z,23.38
2022-07-27T18:14:19.468Z,23.33
2022-07-27T18:16:48.889Z,23.27
2022-07-27T18:19:19.258Z,23.25
2022-07-27T18:21:49.777Z,23.24
2022-07-27T18:24:24.046Z,23.22
2022-07-27T18:26:56.667Z,23.21
2022-07-27T18:29:28.110Z,23.17
2022-07-27T18:31:57.334Z,23.08
2022-07-27T18:34:27.034Z,23.08
2022-07-27T18:36:57.029Z,23.09
2022-07-27T18:39:32.413Z,23.05
2022-07-27T18:42:01.762Z,23.01
2022-07-27T18:44:38.601Z,22.98
2022-07-27T18:47:05.985Z,22.96
2022-07-27T18:49:36.894Z,22.93
2022-07-27T18:52:07.498Z,22.89
2022-07-27T18:54:38.635Z,22.89
2022-07-27T18:57:08.209Z,22.89
2022-07-27T18:59:41.070Z,22.85
2022-07-27T19:02:11.235Z,22.83
2022-07-27T19:04:41.258Z,22.84
2022-07-27T19:07:11.320Z,22.79
2022-07-27T19:09:45.074Z,22.72
2022-07-27T19:12:15.537Z,22.64
2022-07-27T19:14:45.435Z,22.59
2022-07-27T19:17:17.505Z,22.51
2022-07-27T19:19:48.929Z,22.47
2022-07-27T19:22:22.713Z,22.43
2022-07-27T19:24:55.001Z,22.41
2022-07-27T19:27:24.772Z,22.37
2022-07-27T19:29:56.187Z,22.37
2022-07-27T19:32:26.792Z,22.40
2022-07-27T19:34:57.038Z,22.42
2022-07-27T19:37:28.339Z,22.44
2022-07-27T19:40:05.611Z,22.45
2022-07-27T19:42:30.888Z,22.43
2022-07-27T19:45:02.468Z,22.45
2022-07-27T19:47:33.996Z,22.40
2022-07-27T19:50:05.138Z,22.36
2022-07-27T19:52:35.089Z,22.30
2022-07-27T19:55:06.508Z,22.27
2022-07-27T19:57:36.941Z,22.23
2022-07-27T20:00:09.126Z,22.19
2022-07-27T20:02:39.501Z,22.18
2022-07-27T20:05:10.543Z,22.12
2022-07-27T20:07:43.172Z,22.08
2022-07-27T20:10:13.467Z,22.07
2022-07-27T20:12:43.108Z,22.09
2022-07-27T20:15:13.026Z,22.01
2022-07-27T20:17:44.638Z,21.98
2022-07-27T20:20:15.716Z,21.91
2022-07-27T20:22:45.103Z,21.84
2022-07-27T20:25:14.725Z,21.81
2022-07-27T20:27:45.177Z,21.74
2022-07-27T20:30:17.026Z,21.68
2022-07-27T20:32:50.433Z,21.65
2022-07-27T20:35:19.558Z,21.63
2022-07-27T20:37:49.106Z,21.62
2022-07-27T20:40:20.462Z,21.57
2022-07-27T20:42:50.476Z,21.56
2022-07-27T20:45:20.788Z,21.50
2022-07-27T20:47:51.785Z,21.47
2022-07-27T20:50:22.245Z,21.46
2022-07-27T20:52:53.494Z,21.44
2022-07-27T20:55:23.922Z,21.38
2022-07-27T20:57:53.131Z,21.36
2022-07-27T21:00:28.914Z,21.36
2022-07-27T21:02:56.637Z,21.36
2022-07-27T21:05:28.206Z,21.38
2022-07-27T21:07:59.659Z,21.42
2022-07-27T21:10:29.510Z,21.43
2022-07-27T21:12:59.664Z,21.39
2022-07-27T21:15:33.942Z,21.34
2022-07-27T21:18:04.261Z,21.34
2022-07-27T21:20:34.366Z,21.38
2022-07-27T21:23:22.862Z,21.42
2022-07-27T21:25:53.180Z,21.38
2022-07-27T21:28:25.214Z,21.32
2022-07-27T21:30:55.012Z,21.30
2022-07-27T21:33:25.297Z,21.28
2022-07-27T21:35:55.726Z,21.27
2022-07-27T21:38:25.983Z,21.26
2022-07-27T21:40:56.925Z,21.25
2022-07-27T21:43:27.072Z,21.26
2022-07-27T21:45:56.421Z,21.23
2022-07-27T21:48:26.403Z,21.22
2022-07-27T21:50:55.329Z,21.16
2022-07-27T21:53:25.040Z,21.06
2022-07-27T21:55:53.859Z,20.98
2022-07-27T21:58:24.069Z,20.96
2022-07-27T22:00:53.864Z,20.98
2022-07-27T22:03:24.087Z,20.97
2022-07-27T22:05:54.297Z,20.98
2022-07-27T22:08:24.460Z,20.98
2022-07-27T22:10:53.882Z,21.01
2022-07-27T22:13:24.178Z,21.03
2022-07-27T22:15:55.550Z,21.04
2022-07-27T22:18:26.641Z,21.04
2022-07-27T22:20:58.517Z,21.04
2022-07-27T22:23:30.676Z,21.07
2022-07-27T22:26:01.185Z,21.08
2022-07-27T22:28:30.613Z,21.08
2022-07-27T22:31:21.724Z,21.07
2022-07-27T22:33:32.681Z,21.02
2022-07-27T22:36:02.228Z,21.03
2022-07-27T22:38:32.176Z,21.01
2022-07-27T22:41:03.892Z,20.97
2022-07-27T22:43:34.370Z,20.98
2022-07-27T22:46:07.166Z,20.97
2022-07-27T22:48:36.758Z,20.94
2022-07-27T22:51:06.043Z,20.92
2022-07-27T22:53:35.194Z,20.90
2022-07-27T22:56:06.032Z,20.85
2022-07-27T22:58:35.666Z,20.83
2022-07-27T23:01:05.564Z,20.83
2022-07-27T23:03:37.064Z,20.83
2022-07-27T23:06:07.514Z,20.77
2022-07-27T23:08:37.354Z,20.75
2022-07-27T23:11:07.090Z,20.74
2022-07-27T23:13:37.631Z,20.72
2022-07-27T23:16:06.765Z,20.73
2022-07-27T23:18:36.489Z,20.73
2022-07-27T23:21:05.757Z,20.71
2022-07-27T23:23:39.840Z,20.70
2022-07-27T23:26:07.526Z,20.69
2022-07-27T23:28:40.560Z,20.68
2022-07-27T23:31:12.227Z,20.62
2022-07-27T23:33:46.732Z,20.61
2022-07-27T23:36:16.900Z,20.60
2022-07-27T23:38:46.174Z,20.55
2022-07-27T23:41:16.628Z,20.53
2022-07-27T23:43:47.204Z,20.54
2022-07-27T23:46:18.881Z,20.55
2022-07-27T23:48:48.392Z,20.55
2022-07-27T23:51:21.253Z,20.57
2022-07-27T23:53:50.794Z,20.57
2022-07-27T23:56:20.665Z,20.57
2022-07-27T23:58:49.596Z,20.57
